Terminal Aerodrome Forecast
Issued by NWS Austin/San Antonio, TX

Current Version | Previous Version | Text Only | Print | Product List | Glossary Off
Versions: 1 2 3 4 5 6 7 8 9 10 11 12

000
FTUS44 KEWX 250500
TAFSAT
TAF
KSAT 250530Z 2506/2612 12004KT P6SM SKC
     FM251100 22005KT P6SM FEW050
     FM252200 16005KT P6SM FEW050
     FM260600 22005KT P6SM SKC=

USA.gov is the U.S. government's official web portal to all federal, state and local government web resources and services.